Terminal Aerodrome Forecast
Issued by NWS Charleston, WV

Home | Current Version | Previous Version | Text Only | Print | Product List | Glossary On
Versions: 1 2 3 4 5 6 7 8 9 10 11 12 13 14 15 16 17 18 19 20 21 22 23 24 25
943
FTUS41 KRLX 251737
TAFEKN
TAF
KEKN 251737Z 2518/2618 00000KT P6SM FEW022 BKN040 OVC070
     FM252100 26009KT P6SM BKN025
     FM260000 27007KT 3SM SHRA OVC009
     FM260800 27010G16KT 6SM SHRA OVC013
     FM261000 27012G23KT P6SM OVC015
     FM261500 27011G19KT P6SM BKN022
     FM261600 27011G18KT P6SM SCT028=

USA.gov is the U.S. government's official web portal to all federal, state and local government web resources and services.